createdAt,value
2018-10-01T00:00:45.864Z,27.50
2018-10-01T00:03:14.053Z,27.27
2018-10-01T00:05:42.134Z,28.00
2018-10-01T00:08:10.317Z,28.03
2018-10-01T00:10:38.459Z,27.43
2018-10-01T00:13:06.584Z,27.80
2018-10-01T00:15:34.704Z,27.73
2018-10-01T00:18:02.848Z,26.80
2018-10-01T00:20:36.429Z,28.60
2018-10-01T00:23:04.593Z,27.20
2018-10-01T00:25:32.707Z,26.57
2018-10-01T00:28:00.793Z,27.00
2018-10-01T00:30:28.897Z,26.67
2018-10-01T00:32:57.108Z,27.70
2018-10-01T00:35:25.240Z,27.50
2018-10-01T00:37:53.421Z,28.30
2018-10-01T00:40:21.573Z,28.27
2018-10-01T00:42:49.645Z,27.13
2018-10-01T00:45:17.789Z,28.03
2018-10-01T00:47:45.920Z,26.07
2018-10-01T00:50:14.138Z,25.97
2018-10-01T00:52:42.287Z,26.50
2018-10-01T00:55:10.472Z,25.50
2018-10-01T00:57:38.596Z,28.97
2018-10-01T01:00:06.711Z,26.67
2018-10-01T01:02:34.850Z,26.37
2018-10-01T01:05:03.006Z,29.47
2018-10-01T01:07:31.097Z,27.43
2018-10-01T01:09:59.298Z,25.90
2018-10-01T01:12:27.484Z,25.63
2018-10-01T01:14:55.600Z,26.77
2018-10-01T01:17:24.023Z,24.07
2018-10-01T01:19:52.172Z,24.73
2018-10-01T01:22:20.345Z,26.07
2018-10-01T01:24:48.520Z,26.03
2018-10-01T01:27:16.717Z,25.53
2018-10-01T01:29:44.855Z,28.07
2018-10-01T01:32:12.959Z,24.47
2018-10-01T01:34:41.124Z,25.67
2018-10-01T01:37:09.272Z,24.97
2018-10-01T01:39:40.452Z,25.47
2018-10-01T01:42:08.630Z,25.47
2018-10-01T01:44:36.809Z,25.47
2018-10-01T01:47:05.168Z,29.10
2018-10-01T01:49:33.380Z,24.97
2018-10-01T01:52:01.736Z,23.73
2018-10-01T01:54:29.905Z,24.70
2018-10-01T01:56:58.147Z,25.23
2018-10-01T01:59:26.234Z,25.47
2018-10-01T02:01:54.345Z,25.27
2018-10-01T02:04:22.481Z,25.17
2018-10-01T02:06:50.543Z,24.60
2018-10-01T02:09:18.637Z,23.93
2018-10-01T02:11:46.812Z,26.20
2018-10-01T02:14:15.024Z,25.63
2018-10-01T02:16:43.303Z,24.10
2018-10-01T02:19:11.438Z,24.67
2018-10-01T02:21:39.761Z,25.03
2018-10-01T02:24:07.892Z,25.17
2018-10-01T02:26:36.083Z,28.17
2018-10-01T02:29:04.261Z,23.60
2018-10-01T02:31:32.442Z,30.43
2018-10-01T02:34:00.563Z,25.73
2018-10-01T02:36:28.689Z,24.50
2018-10-01T02:38:57.853Z,33.00
2018-10-01T02:41:26.060Z,25.87
2018-10-01T02:43:54.312Z,25.73
2018-10-01T02:46:22.525Z,23.73
2018-10-01T02:48:50.638Z,31.83
2018-10-01T02:51:18.765Z,25.27
2018-10-01T02:53:52.564Z,23.40
2018-10-01T02:56:20.741Z,24.60
2018-10-01T02:58:48.864Z,25.20
2018-10-01T03:01:16.977Z,23.53
2018-10-01T03:03:45.101Z,24.53
2018-10-01T03:06:13.207Z,22.10
2018-10-01T03:08:41.376Z,22.77
2018-10-01T03:11:09.569Z,22.13
2018-10-01T03:13:37.753Z,23.63
2018-10-01T03:16:05.975Z,22.30
2018-10-01T03:18:34.093Z,22.47
2018-10-01T03:21:02.282Z,23.40
2018-10-01T03:23:30.440Z,23.32
2018-10-01T03:25:58.647Z,22.35
2018-10-01T03:28:26.768Z,23.70
2018-10-01T03:30:54.916Z,30.97
2018-10-01T03:33:23.008Z,22.43
2018-10-01T03:35:51.227Z,22.10
2018-10-01T03:38:19.393Z,22.13
2018-10-01T03:40:47.560Z,21.90
2018-10-01T03:43:15.734Z,24.37
2018-10-01T03:45:43.892Z,24.80
2018-10-01T03:48:12.088Z,29.80
2018-10-01T03:50:40.263Z,21.47
2018-10-01T03:53:08.642Z,22.77
2018-10-01T03:55:36.785Z,21.50
2018-10-01T03:58:04.999Z,22.25
2018-10-01T04:00:33.169Z,22.70
2018-10-01T04:03:01.424Z,23.53
2018-10-01T04:05:29.472Z,23.30
2018-10-01T04:07:57.577Z,26.20
2018-10-01T04:10:25.765Z,22.67
2018-10-01T04:12:53.895Z,27.13
2018-10-01T04:15:22.113Z,21.30
2018-10-01T04:17:50.341Z,22.37
2018-10-01T04:20:18.551Z,21.60
2018-10-01T04:22:46.763Z,22.80
2018-10-01T04:25:14.875Z,24.30
2018-10-01T04:27:42.944Z,21.73
2018-10-01T04:30:12.028Z,22.00
2018-10-01T04:32:40.124Z,21.80
2018-10-01T04:35:08.517Z,22.30
2018-10-01T04:37:36.860Z,22.57
2018-10-01T04:40:05.213Z,22.00
2018-10-01T04:42:33.325Z,23.50
2018-10-01T04:45:01.396Z,22.40
2018-10-01T04:47:29.524Z,22.40
2018-10-01T04:49:57.656Z,23.87
2018-10-01T04:52:25.841Z,23.87
2018-10-01T04:54:54.004Z,23.20
2018-10-01T04:57:22.189Z,20.80
2018-10-01T04:59:50.555Z,24.00
2018-10-01T05:02:18.728Z,23.00
2018-10-01T05:04:47.120Z,22.57
2018-10-01T05:07:15.389Z,23.07
2018-10-01T05:09:43.572Z,27.87
2018-10-01T05:12:11.724Z,26.37
2018-10-01T05:14:39.822Z,23.87
2018-10-01T05:17:07.892Z,22.43
2018-10-01T05:19:36.058Z,23.00
2018-10-01T05:22:04.245Z,23.70
2018-10-01T05:24:32.993Z,23.23
2018-10-01T05:27:01.147Z,23.97
2018-10-01T05:29:29.301Z,23.37
2018-10-01T05:31:57.466Z,25.53
2018-10-01T05:34:25.799Z,24.13
2018-10-01T05:36:53.928Z,25.07
2018-10-01T05:39:22.097Z,24.00
2018-10-01T05:41:50.273Z,23.87
2018-10-01T05:44:18.431Z,24.43
2018-10-01T05:46:46.621Z,24.07
2018-10-01T05:49:14.819Z,24.40
2018-10-01T05:51:42.947Z,24.83
2018-10-01T05:54:11.137Z,24.40
2018-10-01T05:56:39.277Z,24.80
2018-10-01T05:59:07.393Z,26.33
2018-10-01T06:01:35.557Z,45.87
2018-10-01T06:04:03.727Z,35.53
2018-10-01T06:06:31.887Z,25.63
2018-10-01T06:09:00.066Z,25.03
2018-10-01T06:11:28.260Z,26.23
2018-10-01T06:13:56.461Z,26.00
2018-10-01T06:16:24.548Z,32.67
2018-10-01T06:18:52.654Z,33.43
2018-10-01T06:21:20.800Z,35.00
2018-10-01T06:23:48.970Z,35.60
2018-10-01T06:26:17.101Z,26.97
2018-10-01T06:28:45.289Z,26.20
2018-10-01T06:31:13.463Z,25.90
2018-10-01T06:33:41.620Z,31.40
2018-10-01T06:37:34.345Z,26.83
2018-10-01T06:40:02.535Z,29.73
2018-10-01T06:42:30.714Z,31.80
2018-10-01T06:44:58.969Z,26.87
2018-10-01T06:47:27.156Z,25.93
2018-10-01T06:49:55.409Z,31.20
2018-10-01T06:52:23.770Z,26.80
2018-10-01T06:54:51.921Z,26.27
2018-10-01T06:57:20.135Z,27.60
2018-10-01T06:59:48.309Z,28.03
2018-10-01T07:02:16.417Z,32.67
2018-10-01T07:04:44.603Z,34.10
2018-10-01T07:07:12.950Z,56.27
2018-10-01T07:09:41.046Z,28.03
2018-10-01T07:12:09.242Z,29.33
2018-10-01T07:14:37.419Z,27.17
2018-10-01T07:17:05.808Z,27.60
2018-10-01T07:19:33.938Z,28.00
2018-10-01T07:22:02.311Z,29.17
2018-10-01T07:24:30.524Z,29.90
2018-10-01T07:26:58.689Z,26.90
2018-10-01T07:29:26.864Z,38.80
2018-10-01T07:31:55.058Z,29.00
2018-10-01T07:34:23.201Z,28.20
2018-10-01T07:36:51.410Z,31.03
2018-10-01T07:39:19.553Z,31.80
2018-10-01T07:41:47.680Z,32.93
2018-10-01T07:44:16.361Z,33.57
2018-10-01T07:46:44.510Z,31.97
2018-10-01T07:49:12.714Z,31.60
2018-10-01T07:51:40.852Z,29.67
2018-10-01T07:54:09.215Z,28.87
2018-10-01T07:56:37.281Z,29.13
2018-10-01T07:59:05.960Z,29.50
2018-10-01T08:01:34.063Z,29.30
2018-10-01T08:04:02.237Z,33.70
2018-10-01T08:06:30.468Z,29.87
2018-10-01T08:08:58.633Z,30.87
2018-10-01T08:11:26.757Z,32.20
2018-10-01T08:13:54.973Z,31.07
2018-10-01T08:16:23.092Z,33.20
2018-10-01T08:18:51.188Z,32.50
2018-10-01T08:21:19.400Z,30.20
2018-10-01T08:23:47.813Z,30.30
2018-10-01T08:26:15.956Z,29.37
2018-10-01T08:28:44.133Z,28.40
2018-10-01T08:31:12.360Z,35.13
2018-10-01T08:33:40.636Z,30.43
2018-10-01T08:36:08.838Z,30.83
2018-10-01T08:38:37.372Z,29.17
2018-10-01T08:41:05.464Z,29.17
2018-10-01T08:43:33.544Z,34.23
2018-10-01T08:46:01.749Z,30.10
2018-10-01T08:48:30.924Z,48.37
2018-10-01T08:51:07.504Z,33.53
2018-10-01T08:54:40.771Z,29.73
2018-10-01T08:57:08.864Z,30.63
2018-10-01T08:59:37.003Z,29.40
2018-10-01T09:02:05.225Z,28.63
2018-10-01T09:04:33.904Z,29.37
2018-10-01T09:07:02.749Z,28.30
2018-10-01T09:09:30.882Z,30.17
2018-10-01T09:11:59.071Z,30.13
2018-10-01T09:14:28.384Z,30.27
2018-10-01T09:16:56.541Z,29.73
2018-10-01T09:19:24.789Z,29.80
2018-10-01T09:21:52.956Z,30.23
2018-10-01T09:24:21.165Z,29.17
2018-10-01T09:26:49.359Z,30.27
2018-10-01T09:29:18.565Z,29.57
2018-10-01T09:31:46.692Z,30.97
2018-10-01T09:34:14.905Z,33.60
2018-10-01T09:36:43.057Z,31.87
2018-10-01T09:39:11.713Z,45.00
2018-10-01T09:41:40.480Z,38.20
2018-10-01T09:44:08.929Z,34.60
2018-10-01T09:46:37.137Z,30.63
2018-10-01T09:49:05.329Z,30.30
2018-10-01T10:02:56.370Z,30.97
2018-10-01T10:05:24.765Z,43.37
2018-10-01T10:07:53.154Z,29.40
2018-10-01T10:10:21.478Z,34.93
2018-10-01T10:12:49.853Z,31.93
2018-10-01T10:15:18.279Z,33.43
2018-10-01T10:17:46.590Z,34.40
2018-10-01T10:20:15.108Z,40.37
2018-10-01T10:22:43.493Z,30.90
2018-10-01T10:25:11.866Z,39.00
2018-10-01T10:27:40.286Z,37.70
2018-10-01T10:30:10.076Z,29.90
2018-10-01T10:32:38.623Z,29.87
2018-10-01T10:35:07.177Z,33.03
2018-10-01T10:37:35.454Z,31.70
2018-10-01T10:40:03.884Z,31.73
2018-10-01T10:42:32.214Z,33.60
2018-10-01T10:45:00.534Z,33.70
2018-10-01T10:47:28.901Z,32.17
2018-10-01T10:49:57.333Z,43.30
2018-10-01T10:52:25.651Z,32.03
2018-10-01T10:54:54.022Z,32.70
2018-10-01T10:57:22.445Z,34.10
2018-10-01T10:59:50.810Z,31.17
2018-10-01T11:02:19.169Z,55.50
2018-10-01T11:04:47.551Z,33.00
2018-10-01T11:07:15.991Z,40.07
2018-10-01T11:09:44.290Z,35.00
2018-10-01T11:12:12.686Z,34.43
2018-10-01T11:14:41.157Z,32.37
2018-10-01T11:19:47.682Z,31.63
2018-10-01T11:22:16.101Z,41.97
2018-10-01T11:24:44.458Z,37.97
2018-10-01T11:27:12.870Z,32.80
2018-10-01T11:29:41.149Z,40.93
2018-10-01T11:32:09.610Z,33.10
2018-10-01T11:34:38.068Z,31.70
2018-10-01T11:37:06.351Z,31.13
2018-10-01T11:39:34.765Z,32.53
2018-10-01T11:42:03.353Z,33.97
2018-10-01T11:44:31.806Z,40.00
2018-10-01T11:47:00.128Z,35.43
2018-10-01T11:49:28.590Z,33.80
2018-10-01T11:51:57.458Z,32.07
2018-10-01T11:54:26.065Z,39.00
2018-10-01T11:56:54.537Z,30.97
2018-10-01T11:59:22.899Z,37.73
2018-10-01T12:01:51.254Z,33.70
2018-10-01T12:04:19.641Z,45.50
2018-10-01T12:06:48.038Z,32.07
2018-10-01T12:09:16.491Z,32.60
2018-10-01T12:11:44.810Z,47.43
2018-10-01T12:14:13.141Z,37.43
2018-10-01T12:16:41.562Z,53.60
2018-10-01T12:19:10.251Z,34.30
2018-10-01T12:21:38.796Z,43.13
2018-10-01T12:24:07.843Z,41.70
2018-10-01T12:26:36.261Z,36.13
2018-10-01T12:29:04.726Z,38.33
2018-10-01T12:31:33.382Z,36.57
2018-10-01T12:34:01.812Z,37.93
2018-10-01T12:36:30.237Z,40.20
2018-10-01T12:38:58.625Z,36.67
2018-10-01T12:41:26.966Z,42.93
2018-10-01T12:43:55.323Z,33.10
2018-10-01T12:46:23.722Z,34.90
2018-10-01T12:48:52.336Z,36.20
2018-10-01T12:51:20.858Z,37.43
2018-10-01T12:53:49.206Z,39.07
2018-10-01T12:56:17.614Z,34.77
2018-10-01T12:58:46.107Z,47.23
2018-10-01T13:01:14.634Z,42.70
2018-10-01T13:03:44.659Z,34.10
2018-10-01T13:06:13.171Z,46.70
2018-10-01T13:08:41.569Z,33.77
2018-10-01T13:11:10.013Z,40.73
2018-10-01T13:13:38.645Z,33.30
2018-10-01T13:16:07.081Z,33.30
2018-10-01T13:18:35.718Z,33.47
2018-10-01T13:21:04.243Z,32.67
2018-10-01T13:23:32.701Z,31.70
2018-10-01T13:26:01.376Z,29.90
2018-10-01T13:28:29.882Z,40.93
2018-10-01T13:30:59.241Z,33.37
2018-10-01T13:33:29.805Z,33.47
2018-10-01T13:35:58.281Z,33.37
2018-10-01T13:38:28.081Z,34.10
2018-10-01T13:40:56.578Z,34.17
2018-10-01T13:43:24.937Z,31.87
2018-10-01T13:45:53.406Z,30.30
2018-10-01T13:48:22.005Z,28.83
2018-10-01T13:50:50.503Z,28.77
2018-10-01T13:53:18.930Z,29.60
2018-10-01T13:55:47.412Z,30.33
2018-10-01T13:58:15.807Z,28.93
2018-10-01T14:00:44.122Z,26.47
2018-10-01T14:03:12.514Z,25.90
2018-10-01T14:05:40.826Z,26.10
2018-10-01T14:08:09.175Z,27.07
2018-10-01T14:10:37.578Z,27.47
2018-10-01T14:13:06.129Z,27.00
2018-10-01T14:15:34.451Z,26.20
2018-10-01T14:18:03.067Z,26.33
2018-10-01T14:20:31.388Z,27.30
2018-10-01T14:22:59.786Z,25.30
2018-10-01T14:25:29.290Z,26.93
2018-10-01T14:27:57.558Z,25.77
2018-10-01T14:30:26.045Z,25.77
2018-10-01T14:32:54.318Z,24.83
2018-10-01T14:35:22.762Z,25.57
2018-10-01T14:37:51.074Z,25.07
2018-10-01T14:40:19.454Z,25.67
2018-10-01T14:42:48.027Z,24.83
2018-10-01T14:45:16.604Z,26.07
2018-10-01T14:47:45.013Z,27.27
2018-10-01T14:50:13.418Z,24.00
2018-10-01T14:52:41.774Z,24.97
2018-10-01T14:55:10.204Z,33.63
2018-10-01T14:57:38.586Z,24.83
2018-10-01T15:00:06.986Z,24.43
2018-10-01T15:02:35.354Z,24.90
2018-10-01T15:05:03.814Z,26.27
2018-10-01T15:07:32.150Z,25.47
2018-10-01T15:10:00.506Z,25.00
2018-10-01T15:12:28.932Z,24.97
2018-10-01T15:14:57.349Z,24.67
2018-10-01T15:17:25.785Z,23.70
2018-10-01T15:19:54.166Z,23.67
2018-10-01T15:22:22.579Z,23.90
2018-10-01T15:24:50.925Z,22.37
2018-10-01T15:27:19.300Z,21.87
2018-10-01T15:29:47.687Z,20.80
2018-10-01T15:32:16.055Z,25.87
2018-10-01T15:34:44.419Z,22.87
2018-10-01T15:37:12.814Z,20.90
2018-10-01T15:39:41.158Z,21.00
2018-10-01T15:42:09.607Z,20.67
2018-10-01T15:44:37.980Z,20.90
2018-10-01T15:47:06.402Z,20.77
2018-10-01T15:49:34.822Z,21.13
2018-10-01T15:52:03.150Z,20.57
2018-10-01T15:54:31.575Z,21.50
2018-10-01T15:56:59.990Z,21.90
2018-10-01T15:59:28.417Z,28.20
2018-10-01T16:01:56.830Z,22.87
2018-10-01T16:04:27.244Z,19.80
2018-10-01T16:06:55.652Z,20.70
2018-10-01T16:09:24.032Z,20.43
2018-10-01T16:11:52.350Z,19.70
2018-10-01T16:14:20.817Z,21.30
2018-10-01T16:16:49.298Z,20.70
2018-10-01T16:19:17.719Z,19.90
2018-10-01T16:21:46.091Z,22.07
2018-10-01T16:24:15.534Z,22.03
2018-10-01T16:26:43.998Z,28.33
2018-10-01T16:29:12.350Z,20.63
2018-10-01T16:31:40.707Z,20.13
2018-10-01T16:34:09.129Z,20.40
2018-10-01T16:36:37.538Z,22.67
2018-10-01T16:39:09.183Z,26.30
2018-10-01T16:41:37.588Z,30.33
2018-10-01T16:44:06.255Z,20.53
2018-10-01T16:46:34.622Z,20.70
2018-10-01T16:49:03.277Z,21.50
2018-10-01T16:51:31.798Z,21.20
2018-10-01T16:54:00.598Z,21.00
2018-10-01T16:56:29.284Z,20.17
2018-10-01T16:58:57.701Z,21.60
2018-10-01T17:01:26.098Z,20.17
2018-10-01T17:03:54.462Z,21.87
2018-10-01T17:06:27.873Z,20.63
2018-10-01T17:08:57.706Z,21.10
2018-10-01T17:11:26.098Z,21.03
2018-10-01T17:13:55.467Z,20.30
2018-10-01T17:16:23.832Z,23.57
2018-10-01T17:18:52.300Z,21.90
2018-10-01T17:21:20.751Z,21.00
2018-10-01T17:23:49.107Z,20.90
2018-10-01T17:26:17.430Z,21.33
2018-10-01T17:28:46.023Z,21.90
2018-10-01T17:31:16.422Z,22.10
2018-10-01T17:33:44.867Z,19.83
2018-10-01T17:36:13.214Z,22.27
2018-10-01T17:38:42.647Z,21.97
2018-10-01T17:41:11.100Z,22.70
2018-10-01T17:43:39.562Z,21.43
2018-10-01T17:46:08.091Z,21.30
2018-10-01T17:48:36.471Z,21.80
2018-10-01T17:51:05.450Z,21.30
2018-10-01T17:53:33.830Z,23.47
2018-10-01T17:56:02.873Z,20.90
2018-10-01T17:58:31.265Z,22.00
2018-10-01T18:00:59.614Z,21.80
2018-10-01T18:03:27.990Z,21.13
2018-10-01T18:05:56.442Z,21.73
2018-10-01T18:08:25.211Z,22.67
2018-10-01T18:10:53.634Z,22.43
2018-10-01T18:13:22.434Z,22.13
2018-10-01T18:15:50.862Z,21.07
2018-10-01T18:18:19.453Z,21.87
2018-10-01T18:20:47.957Z,22.00
2018-10-01T18:23:16.439Z,22.70
2018-10-01T18:25:44.806Z,23.20
2018-10-01T18:28:13.210Z,22.20
2018-10-01T18:30:41.633Z,20.33
2018-10-01T18:33:10.135Z,21.97
2018-10-01T18:35:38.590Z,21.97
2018-10-01T18:38:07.359Z,21.00
2018-10-01T18:40:35.766Z,21.90
2018-10-01T18:43:04.186Z,25.43
2018-10-01T18:45:32.613Z,21.63
2018-10-01T18:48:01.141Z,21.73
2018-10-01T18:50:29.512Z,21.13
2018-10-01T18:52:57.984Z,22.90
2018-10-01T18:55:26.400Z,21.30
2018-10-01T18:57:54.786Z,21.50
2018-10-01T19:00:23.139Z,22.17
2018-10-01T19:02:51.539Z,22.40
2018-10-01T19:05:19.919Z,21.60
2018-10-01T19:07:48.365Z,22.10
2018-10-01T19:10:16.906Z,21.77
2018-10-01T19:12:45.234Z,22.90
2018-10-01T19:15:13.695Z,21.37
2018-10-01T19:17:42.026Z,22.20
2018-10-01T19:20:10.372Z,20.73
2018-10-01T19:22:38.783Z,24.03
2018-10-01T19:25:07.154Z,22.10
2018-10-01T19:27:35.525Z,21.13
2018-10-01T19:30:04.010Z,20.63
2018-10-01T19:32:33.280Z,21.60
2018-10-01T19:35:01.737Z,20.97
2018-10-01T19:37:30.260Z,20.23
2018-10-01T19:39:58.654Z,21.97
2018-10-01T19:42:27.179Z,20.30
2018-10-01T19:44:55.690Z,22.77
2018-10-01T19:47:24.405Z,22.40
2018-10-01T19:51:23.417Z,21.10
2018-10-01T19:53:51.929Z,25.27
2018-10-01T19:56:20.254Z,19.60
2018-10-01T19:58:48.668Z,20.20
2018-10-01T20:01:16.995Z,19.60
2018-10-01T20:03:45.376Z,19.20
2018-10-01T20:06:13.951Z,19.10
2018-10-01T20:08:42.391Z,20.70
2018-10-01T20:11:11.121Z,19.80
2018-10-01T20:13:39.747Z,20.37
2018-10-01T20:16:08.332Z,19.17
2018-10-01T20:18:36.631Z,20.30
2018-10-01T20:21:05.163Z,19.90
2018-10-01T20:23:33.672Z,19.43
2018-10-01T20:26:02.367Z,20.03
2018-10-01T20:28:30.975Z,19.70
2018-10-01T20:31:00.363Z,19.13
2018-10-01T20:33:28.770Z,19.00
2018-10-01T20:35:58.001Z,19.40
2018-10-01T20:38:26.549Z,26.30
2018-10-01T20:40:55.057Z,18.60
2018-10-01T20:43:23.433Z,19.17
2018-10-01T20:45:52.027Z,25.97
2018-10-01T20:48:20.592Z,19.47
2018-10-01T20:50:49.059Z,19.20
2018-10-01T20:53:17.607Z,27.30
2018-10-01T20:55:46.079Z,19.30
2018-10-01T20:58:14.636Z,19.13
2018-10-01T21:00:43.237Z,20.13
2018-10-01T21:03:11.624Z,19.70
2018-10-01T21:05:41.034Z,20.13
2018-10-01T21:08:09.715Z,18.77
2018-10-01T21:10:38.106Z,18.87
2018-10-01T21:13:06.540Z,20.43
2018-10-01T21:15:35.096Z,19.23
2018-10-01T21:18:03.512Z,20.10
2018-10-01T21:20:31.899Z,19.80
2018-10-01T21:23:00.294Z,19.47
2018-10-01T21:25:28.647Z,19.73
2018-10-01T21:27:58.122Z,19.50
2018-10-01T21:30:26.614Z,19.17
2018-10-01T21:32:55.162Z,19.30
2018-10-01T21:35:23.567Z,19.60
2018-10-01T21:37:52.021Z,19.47
2018-10-01T21:40:20.455Z,19.73
2018-10-01T21:42:48.878Z,19.53
2018-10-01T21:45:18.063Z,18.70
2018-10-01T21:47:46.375Z,18.47
2018-10-01T21:52:54.653Z,18.93
2018-10-01T21:55:23.007Z,18.40
2018-10-01T21:57:51.386Z,19.43
2018-10-01T22:00:19.730Z,20.63
2018-10-01T22:02:48.147Z,18.73
2018-10-01T22:05:16.486Z,24.40
2018-10-01T22:07:44.896Z,19.27
2018-10-01T22:10:13.279Z,19.33
2018-10-01T22:12:41.646Z,19.43
2018-10-01T22:15:10.010Z,18.60
2018-10-01T22:17:38.435Z,18.37
2018-10-01T22:20:06.815Z,19.60
2018-10-01T22:22:35.162Z,18.10
2018-10-01T22:25:03.562Z,19.30
2018-10-01T22:27:31.923Z,19.93
2018-10-01T22:30:00.312Z,18.53
2018-10-01T22:32:28.660Z,17.70
2018-10-01T22:34:57.062Z,19.13
2018-10-01T22:37:25.426Z,18.90
2018-10-01T22:39:53.852Z,18.90
2018-10-01T22:42:22.202Z,19.70
2018-10-01T22:44:50.558Z,20.30
2018-10-01T22:47:18.962Z,25.43
2018-10-01T22:49:47.313Z,18.80
2018-10-01T22:52:15.726Z,18.97
2018-10-01T22:54:44.055Z,28.73
2018-10-01T22:57:12.474Z,20.30
2018-10-01T22:59:40.842Z,20.13
2018-10-01T23:02:09.232Z,22.77
2018-10-01T23:04:37.631Z,19.23
2018-10-01T23:07:05.988Z,20.40
2018-10-01T23:09:34.346Z,20.37
2018-10-01T23:12:02.742Z,20.00
2018-10-01T23:14:31.141Z,20.00
2018-10-01T23:16:59.486Z,20.33
2018-10-01T23:19:27.881Z,20.73
2018-10-01T23:21:56.262Z,19.23
2018-10-01T23:24:24.646Z,19.73
2018-10-01T23:26:53.061Z,19.50
2018-10-01T23:29:21.409Z,20.60
2018-10-01T23:31:49.735Z,19.80
2018-10-01T23:34:18.049Z,19.20
2018-10-01T23:36:47.238Z,19.27
2018-10-01T23:39:15.626Z,19.50
2018-10-01T23:41:43.994Z,19.20
2018-10-01T23:44:12.373Z,19.13
2018-10-01T23:46:40.753Z,20.10
2018-10-01T23:49:09.138Z,19.00
2018-10-01T23:51:38.572Z,20.60
2018-10-01T23:54:06.944Z,20.13
2018-10-01T23:56:35.329Z,30.20
2018-10-01T23:59:03.673Z,19.80
